createdAt,value
2022-11-14T00:01:26.357Z,99114.72
2022-11-14T00:05:47.895Z,99107.81
2022-11-14T00:10:08.938Z,99111.63
2022-11-14T00:14:29.561Z,99113.03
2022-11-14T00:18:51.603Z,99097.34
2022-11-14T00:23:11.948Z,99091.81
2022-11-14T00:27:32.761Z,99097.78
2022-11-14T00:31:53.541Z,99094.66
2022-11-14T00:36:14.444Z,99101.22
2022-11-14T00:40:34.920Z,99091.09
2022-11-14T00:44:55.689Z,99098.72
2022-11-14T00:49:16.385Z,99102.97
2022-11-14T00:53:38.346Z,99112.06
2022-11-14T00:58:00.151Z,99094.56
2022-11-14T01:02:20.814Z,99092.97
2022-11-14T01:06:42.038Z,99088.56
2022-11-14T01:11:10.041Z,99080.19
2022-11-14T01:15:30.901Z,99064.41
2022-11-14T01:19:52.153Z,99065.41
2022-11-14T01:24:13.144Z,99070.00
2022-11-14T01:28:34.086Z,99065.97
2022-11-14T01:32:55.008Z,99065.66
2022-11-14T01:37:15.452Z,99067.63
2022-11-14T01:41:35.981Z,99064.72
2022-11-14T01:45:56.450Z,99063.38
2022-11-14T01:50:17.344Z,99066.81
2022-11-14T01:54:41.459Z,99070.41
2022-11-14T01:59:07.472Z,99057.97
2022-11-14T02:03:28.117Z,99055.19
2022-11-14T02:07:48.825Z,99059.66
2022-11-14T02:12:12.204Z,99046.88
2022-11-14T02:16:32.783Z,99039.28
2022-11-14T02:20:53.345Z,99047.59
2022-11-14T02:25:17.375Z,99040.78
2022-11-14T02:29:38.739Z,99040.44
2022-11-14T02:33:59.216Z,99042.41
2022-11-14T02:38:19.932Z,99038.69
2022-11-14T02:42:41.302Z,99047.34
2022-11-14T02:47:02.077Z,99044.69
2022-11-14T02:51:22.491Z,99043.44
2022-11-14T02:55:42.988Z,99036.63
2022-11-14T03:00:06.767Z,99036.59
2022-11-14T03:04:30.920Z,99040.63
2022-11-14T03:08:51.511Z,99034.16
2022-11-14T03:13:13.479Z,99034.34
2022-11-14T03:17:36.132Z,99030.38
2022-11-14T03:21:56.610Z,99040.03
2022-11-14T03:26:17.153Z,99035.78
2022-11-14T03:30:37.603Z,99025.13
2022-11-14T03:34:58.940Z,99025.13
2022-11-14T03:39:19.346Z,99020.00
2022-11-14T03:43:39.851Z,99025.53
2022-11-14T03:48:00.610Z,99029.13
2022-11-14T03:52:21.226Z,99018.94
2022-11-14T03:56:41.964Z,99025.84
2022-11-14T04:01:03.912Z,99019.91
2022-11-14T04:05:24.645Z,99018.38
2022-11-14T04:09:47.361Z,99025.22
2022-11-14T04:14:08.215Z,99027.47
2022-11-14T04:18:29.680Z,99021.59
2022-11-14T04:22:50.625Z,99019.41
2022-11-14T04:27:11.631Z,99021.03
2022-11-14T04:31:31.998Z,99016.59
2022-11-14T04:35:52.936Z,99018.69
2022-11-14T04:40:13.668Z,99012.88
2022-11-14T04:44:34.150Z,99008.47
2022-11-14T04:48:54.817Z,99011.94
2022-11-14T04:53:15.622Z,99003.31
2022-11-14T04:57:36.445Z,99003.69
2022-11-14T05:01:57.295Z,99009.50
2022-11-14T05:06:17.539Z,99012.63
2022-11-14T05:10:38.399Z,99015.16
2022-11-14T05:15:01.121Z,99024.31
2022-11-14T05:19:21.628Z,99011.25
2022-11-14T05:23:42.235Z,99021.97
2022-11-14T05:28:02.957Z,99027.84
2022-11-14T05:32:23.609Z,99033.13
2022-11-14T05:36:44.045Z,99030.22
2022-11-14T05:41:16.963Z,99024.13
2022-11-14T05:45:37.584Z,99020.53
2022-11-14T05:49:58.246Z,99024.97
2022-11-14T05:54:19.173Z,99031.50
2022-11-14T05:58:40.263Z,99031.03
2022-11-14T06:03:00.884Z,99030.97
2022-11-14T06:07:21.847Z,99040.44
2022-11-14T06:11:42.228Z,99039.94
2022-11-14T06:16:10.241Z,99030.66
2022-11-14T06:20:30.659Z,99030.81
2022-11-14T06:24:51.251Z,99034.94
2022-11-14T06:29:12.125Z,99030.75
2022-11-14T06:33:35.623Z,99039.38
2022-11-14T06:37:56.413Z,99048.31
2022-11-14T06:42:17.667Z,99051.88
2022-11-14T06:46:38.531Z,99055.69
2022-11-14T06:50:59.712Z,99053.91
2022-11-14T06:55:25.161Z,99044.22
2022-11-14T06:59:45.845Z,99050.75
2022-11-14T07:04:06.697Z,99054.00
2022-11-14T07:08:27.317Z,99046.41
2022-11-14T07:12:48.029Z,99050.59
2022-11-14T07:17:08.741Z,99049.06
2022-11-14T07:21:30.994Z,99049.38
2022-11-14T07:25:51.822Z,99055.91
2022-11-14T07:30:12.830Z,99051.25
2022-11-14T07:34:33.490Z,99048.19
2022-11-14T07:38:54.649Z,99038.72
2022-11-14T07:43:15.029Z,99041.69
2022-11-14T07:47:35.896Z,99043.34
2022-11-14T07:51:56.397Z,99043.31
2022-11-14T07:56:17.347Z,99041.81
2022-11-14T08:00:38.284Z,99040.22
2022-11-14T08:04:58.939Z,99051.25
2022-11-14T08:09:19.694Z,99049.91
2022-11-14T08:13:40.497Z,99053.72
2022-11-14T08:18:02.479Z,99056.50
2022-11-14T08:22:22.947Z,99054.69
2022-11-14T08:26:43.827Z,99057.16
2022-11-14T08:31:05.060Z,99048.63
2022-11-14T08:35:25.375Z,99060.44
2022-11-14T08:39:46.434Z,99066.06
2022-11-14T08:44:07.413Z,99063.75
2022-11-14T08:48:28.832Z,99071.50
2022-11-14T08:52:53.321Z,99074.94
2022-11-14T08:57:15.741Z,99066.31
2022-11-14T09:01:36.582Z,99064.72
2022-11-14T09:05:57.291Z,99051.78
2022-11-14T09:10:18.328Z,99057.53
2022-11-14T09:14:46.462Z,99060.97
2022-11-14T09:19:06.915Z,99058.75
2022-11-14T09:23:28.284Z,99050.06
2022-11-14T09:27:51.006Z,99043.44
2022-11-14T09:32:11.814Z,99043.47
2022-11-14T09:36:32.421Z,99049.09
2022-11-14T09:41:08.759Z,99043.81
2022-11-14T09:45:30.597Z,99033.69
2022-11-14T09:49:56.376Z,99032.38
2022-11-14T09:54:39.385Z,99021.97
2022-11-14T09:59:02.969Z,99023.06
2022-11-14T10:03:36.888Z,99012.06
2022-11-14T10:08:02.729Z,99010.47
2022-11-14T10:13:02.531Z,99001.16
2022-11-14T10:27:05.391Z,98974.63
2022-11-14T10:32:27.880Z,98971.56
2022-11-14T10:37:15.427Z,98972.72
2022-11-14T10:46:27.994Z,98974.75
2022-11-14T10:50:57.379Z,98967.28
2022-11-14T10:55:43.494Z,98961.84
2022-11-14T11:00:17.344Z,98977.78
2022-11-14T11:04:41.832Z,98972.81
2022-11-14T11:09:30.646Z,98970.22
2022-11-14T11:14:00.818Z,98966.59
2022-11-14T11:18:31.185Z,98978.38
2022-11-14T11:23:12.289Z,98982.13
2022-11-14T11:27:34.608Z,98975.22
2022-11-14T11:31:58.622Z,98980.63
2022-11-14T11:36:24.865Z,98971.13
2022-11-14T11:40:55.895Z,98976.41
2022-11-14T11:45:20.243Z,98971.91
2022-11-14T11:49:53.936Z,98976.03
2022-11-14T11:54:22.428Z,98973.34
2022-11-14T11:58:55.765Z,98965.13
2022-11-14T12:03:20.248Z,98973.44
2022-11-14T12:08:04.817Z,98975.13
2022-11-14T12:12:44.450Z,98967.59
2022-11-14T12:17:20.652Z,98968.81
2022-11-14T12:21:59.436Z,98969.94
2022-11-14T12:26:45.422Z,98977.25
2022-11-14T12:31:13.433Z,98972.97
2022-11-14T12:35:38.074Z,98970.19
2022-11-14T12:40:05.181Z,98969.03
2022-11-14T12:44:29.129Z,98969.31
2022-11-14T12:48:50.753Z,98957.66
2022-11-14T12:53:39.610Z,98957.56
2022-11-14T12:58:27.946Z,98949.59
2022-11-14T13:03:19.260Z,98949.94
2022-11-14T13:07:51.889Z,98955.06
2022-11-14T13:12:51.967Z,98948.66
2022-11-14T13:17:37.006Z,98941.69
2022-11-14T13:22:13.177Z,98938.06
2022-11-14T13:26:33.673Z,98939.66
2022-11-14T13:31:16.627Z,98941.38
2022-11-14T13:35:39.284Z,98943.88
2022-11-14T13:40:15.290Z,98940.31
2022-11-14T13:45:02.113Z,98947.00
2022-11-14T13:49:49.960Z,98933.78
2022-11-14T13:54:17.418Z,98933.59
2022-11-14T13:59:01.746Z,98933.72
2022-11-14T14:03:33.662Z,98929.25
2022-11-14T14:08:33.493Z,98938.03
2022-11-14T14:13:12.998Z,98942.91
2022-11-14T14:17:59.853Z,98940.28
2022-11-14T14:22:45.911Z,98940.91
2022-11-14T14:27:25.316Z,98945.88
2022-11-14T14:31:46.018Z,98952.34
2022-11-14T14:36:17.746Z,98943.22
2022-11-14T14:40:40.527Z,98948.31
2022-11-14T14:45:03.999Z,98958.09
2022-11-14T14:49:32.375Z,98938.84
2022-11-14T14:53:54.134Z,98946.75
2022-11-14T14:58:26.072Z,98942.44
2022-11-14T15:02:47.323Z,98939.47
2022-11-14T15:07:21.418Z,98936.19
2022-11-14T15:11:45.637Z,98939.28
2022-11-14T15:16:08.143Z,98927.31
2022-11-14T15:20:30.683Z,98932.66
2022-11-14T15:25:24.782Z,98931.31
2022-11-14T15:29:48.014Z,98941.03
2022-11-14T15:34:33.747Z,98937.47
2022-11-14T15:39:20.380Z,98937.66
2022-11-14T15:43:43.992Z,98947.88
2022-11-14T15:48:14.397Z,98944.97
2022-11-14T15:52:39.986Z,98950.34
2022-11-14T15:57:06.916Z,98950.25
2022-11-14T16:01:27.919Z,98946.31
2022-11-14T16:05:48.875Z,98939.91
2022-11-14T16:10:18.587Z,98946.13
2022-11-14T16:14:39.604Z,98945.34
2022-11-14T16:19:00.448Z,98955.59
2022-11-14T16:23:21.255Z,98961.56
2022-11-14T16:27:41.681Z,98948.22
2022-11-14T16:32:03.690Z,98958.34
2022-11-14T16:36:24.303Z,98972.81
2022-11-14T16:40:45.031Z,98969.03
2022-11-14T16:45:06.303Z,98971.69
2022-11-14T16:49:27.434Z,98978.91
2022-11-14T16:53:48.421Z,98986.59
2022-11-14T16:58:09.161Z,98976.69
2022-11-14T17:02:29.859Z,98984.41
2022-11-14T17:06:51.575Z,98984.81
2022-11-14T17:11:12.374Z,98989.16
2022-11-14T17:15:33.340Z,98983.22
2022-11-14T17:19:53.746Z,98983.69
2022-11-14T17:24:14.355Z,98985.47
2022-11-14T17:28:35.999Z,98997.66
2022-11-14T17:32:56.802Z,98990.88
2022-11-14T17:37:17.223Z,98993.28
2022-11-14T17:41:38.792Z,98998.69
2022-11-14T17:45:59.516Z,99004.34
2022-11-14T17:50:19.897Z,99005.19
2022-11-14T17:54:40.637Z,99001.91
2022-11-14T17:59:01.654Z,99004.84
2022-11-14T18:03:22.263Z,99011.47
2022-11-14T18:07:43.116Z,99012.38
2022-11-14T18:12:04.070Z,99014.50
2022-11-14T18:16:26.475Z,99028.06
2022-11-14T18:20:55.557Z,99027.63
2022-11-14T18:25:16.456Z,99028.75
2022-11-14T18:29:37.514Z,99032.47
2022-11-14T18:33:58.562Z,99027.97
2022-11-14T18:38:19.964Z,99038.66
2022-11-14T18:42:40.323Z,99042.53
2022-11-14T18:47:00.717Z,99049.59
2022-11-14T18:51:28.728Z,99041.53
2022-11-14T18:55:53.195Z,99045.47
2022-11-14T19:00:14.463Z,99042.47
2022-11-14T19:04:35.421Z,99046.09
2022-11-14T19:08:57.598Z,99047.53
2022-11-14T19:13:18.133Z,99052.06
2022-11-14T19:17:38.998Z,99057.44
2022-11-14T19:22:01.088Z,99059.41
2022-11-14T19:26:24.217Z,99063.34
2022-11-14T19:30:44.913Z,99064.38
2022-11-14T19:35:06.273Z,99070.72
2022-11-14T19:39:26.855Z,99079.28
2022-11-14T19:43:48.497Z,99078.47
2022-11-14T19:48:10.583Z,99090.47
2022-11-14T19:52:46.984Z,99089.78
2022-11-14T19:57:26.442Z,99083.44
2022-11-14T20:02:22.238Z,99085.50
2022-11-14T20:06:44.375Z,99091.13
2022-11-14T20:16:40.315Z,99094.53
2022-11-14T20:21:08.069Z,99082.34
2022-11-14T20:25:28.623Z,99082.88
2022-11-14T20:29:49.294Z,99088.88
2022-11-14T20:34:11.465Z,99085.78
2022-11-14T20:38:32.875Z,99089.16
2022-11-14T20:42:53.226Z,99086.06
2022-11-14T20:47:14.417Z,99076.69
2022-11-14T20:51:37.101Z,99093.75
2022-11-14T20:55:58.023Z,99098.00
2022-11-14T21:00:19.441Z,99090.75
2022-11-14T21:04:40.350Z,99093.13
2022-11-14T21:09:01.801Z,99093.50
2022-11-14T21:13:41.131Z,99101.28
2022-11-14T21:18:01.652Z,99107.25
2022-11-14T21:22:22.439Z,99108.53
2022-11-14T21:26:43.266Z,99103.63
2022-11-14T21:31:22.824Z,99093.19
2022-11-14T21:35:49.954Z,99097.19
2022-11-14T21:40:12.101Z,99089.25
2022-11-14T21:44:33.657Z,99081.03
2022-11-14T21:48:57.456Z,99069.13
2022-11-14T21:53:18.931Z,99065.66
2022-11-14T21:57:41.654Z,99061.31
2022-11-14T22:02:25.852Z,99066.13
2022-11-14T22:06:47.665Z,99068.25
2022-11-14T22:11:09.141Z,99069.06
2022-11-14T22:15:30.890Z,99063.75
2022-11-14T22:19:52.077Z,99061.22
2022-11-14T22:24:13.611Z,99066.78
2022-11-14T22:28:34.800Z,99070.59
2022-11-14T22:32:56.186Z,99078.41
2022-11-14T22:37:17.483Z,99066.94
2022-11-14T22:41:38.971Z,99059.19
2022-11-14T22:46:00.771Z,99060.31
2022-11-14T22:50:21.141Z,99059.66
2022-11-14T22:54:42.296Z,99059.06
2022-11-14T22:59:03.318Z,99069.25
2022-11-14T23:03:24.744Z,99073.88
2022-11-14T23:07:45.367Z,99070.91
2022-11-14T23:12:06.354Z,99069.16
2022-11-14T23:16:29.224Z,99064.38
2022-11-14T23:20:49.973Z,99061.06
2022-11-14T23:25:10.634Z,99043.59
2022-11-14T23:29:31.129Z,99039.41
2022-11-14T23:33:55.207Z,99030.19
2022-11-14T23:38:15.439Z,99033.84
2022-11-14T23:42:35.891Z,99036.81
2022-11-14T23:46:56.662Z,99022.53
2022-11-14T23:51:17.635Z,99032.34
2022-11-14T23:55:38.691Z,99035.03
2022-11-14T23:59:59.550Z,99019.31
